Time;durP1;ratioP1;P1;durP2;ratioP2;P2;SDS_P1;SDS_P2;PMS_P1;PMS_P2;Temp;Humidity;BMP_temperature;BMP_pressure;BME280_temperature;BME280_humidity;BME280_pressure;Samples;Min_cycle;Max_cycle;Signal;HPM_P1;HPM_P2
2022/03/29 06:00:11;;;;;;;50.15;21.85;;;;;;;;;;6037070;23;21180;31
2022/03/29 06:02:39;;;;;;;55.80;21.85;;;;;;;;;;4931568;29;20063;-85
2022/03/29 06:05:07;;;;;;;57.83;23.27;;;;;;;;;;4933625;29;20059;-85
2022/03/29 06:07:34;;;;;;;66.10;22.77;;;;;;;;;;4930621;29;20066;-85
2022/03/29 06:10:01;;;;;;;54.83;22.85;;;;;;;;;;4931752;28;20511;-85
2022/03/29 06:12:28;;;;;;;57.22;23.30;;;;;;;;;;4930436;28;20096;-84
2022/03/29 06:14:55;;;;;;;56.40;22.98;;;;;;;;;;4930529;29;20166;-84
2022/03/29 06:17:21;;;;;;;60.35;24.67;;;;;;;;;;4942341;29;20121;-85
2022/03/29 06:19:48;;;;;;;59.70;22.95;;;;;;;;;;4932940;29;20522;-83
2022/03/29 06:22:15;;;;;;;57.85;23.35;;;;;;;;;;4931518;29;20448;-84
2022/03/29 06:24:41;;;;;;;67.82;23.52;;;;;;;;;;4927154;29;20127;-83
2022/03/29 06:27:08;;;;;;;65.03;23.73;;;;;;;;;;4932077;29;20044;-83
2022/03/29 06:29:35;;;;;;;68.60;24.33;;;;;;;;;;4930340;29;20047;-82
2022/03/29 06:32:02;;;;;;;61.38;24.60;;;;;;;;;;4931661;29;20055;-83
2022/03/29 06:34:29;;;;;;;61.60;24.60;;;;;;;;;;4925636;29;20044;-82
2022/03/29 06:36:56;;;;;;;64.45;24.38;;;;;;;;;;4923233;29;20052;-81
2022/03/29 06:39:23;;;;;;;58.40;25.05;;;;;;;;;;4930546;29;20106;-82
2022/03/29 06:41:50;;;;;;;63.25;24.85;;;;;;;;;;4929911;29;20111;-82
2022/03/29 06:44:22;;;;;;;63.17;23.90;;;;;;;;;;4931124;29;20044;-82
2022/03/29 06:46:49;;;;;;;57.95;24.23;;;;;;;;;;4928176;29;20052;-83
2022/03/29 06:49:16;;;;;;;61.63;24.85;;;;;;;;;;4931556;29;20048;-85
2022/03/29 06:51:44;;;;;;;58.13;24.30;;;;;;;;;;4945753;28;20051;-85
2022/03/29 06:54:11;;;;;;;50.35;24.67;;;;;;;;;;4931065;29;20118;-86
2022/03/29 06:56:38;;;;;;;65.15;23.42;;;;;;;;;;4932192;29;20044;-88
2022/03/29 06:59:04;;;;;;;59.05;25.08;;;;;;;;;;4956254;29;20102;-85
2022/03/29 07:01:31;;;;;;;63.70;26.90;;;;;;;;;;4936195;29;20051;-85
2022/03/29 07:03:59;;;;;;;60.72;24.73;;;;;;;;;;4934533;29;20071;-88
2022/03/29 07:06:31;;;;;;;65.15;25.58;;;;;;;;;;4938902;29;20040;-88
2022/03/29 07:12:05;;;;;;;58.80;26.35;;;;;;;;;;4917510;29;20516;-87
2022/03/29 07:14:32;;;;;;;62.92;27.55;;;;;;;;;;4927498;29;20567;-88
2022/03/29 07:16:59;;;;;;;61.38;27.15;;;;;;;;;;4930498;29;20052;-87
2022/03/29 07:19:27;;;;;;;66.93;26.13;;;;;;;;;;4923667;29;20051;-85
2022/03/29 07:21:54;;;;;;;63.40;26.55;;;;;;;;;;4943021;29;20060;-86
2022/03/29 07:24:21;;;;;;;69.15;26.35;;;;;;;;;;4940599;28;20289;-86
2022/03/29 07:26:48;;;;;;;61.35;28.00;;;;;;;;;;4930002;29;20358;-89
2022/03/29 07:29:17;;;;;;;66.73;26.50;;;;;;;;;;4929208;29;20047;-88
2022/03/29 07:31:45;;;;;;;59.78;25.75;;;;;;;;;;4930962;29;20334;-87
2022/03/29 07:34:11;;;;;;;59.92;25.95;;;;;;;;;;4918116;29;20473;-86
2022/03/29 07:36:38;;;;;;;59.92;25.50;;;;;;;;;;4923295;29;20126;-87
2022/03/29 07:39:06;;;;;;;63.38;25.08;;;;;;;;;;4931589;29;20501;-86
2022/03/29 07:41:32;;;;;;;62.30;25.35;;;;;;;;;;4933055;29;20044;-86
2022/03/29 07:44:00;;;;;;;68.68;25.42;;;;;;;;;;4933711;29;20134;-87
2022/03/29 07:46:26;;;;;;;52.78;23.50;;;;;;;;;;4915496;29;20086;-87
2022/03/29 07:48:53;;;;;;;53.83;23.25;;;;;;;;;;4932444;29;20059;-87
2022/03/29 07:51:40;;;;;;;60.92;23.42;;;;;;;;;;4932570;29;20134;-86
2022/03/29 07:54:07;;;;;;;58.05;22.58;;;;;;;;;;4928447;29;20048;-89
2022/03/29 07:56:34;;;;;;;45.47;21.95;;;;;;;;;;4919082;29;20412;-89
2022/03/29 07:59:00;;;;;;;53.42;22.08;;;;;;;;;;4934544;29;20056;-88
2022/03/29 08:01:28;;;;;;;58.08;21.00;;;;;;;;;;4932439;28;20040;-86
2022/03/29 08:03:55;;;;;;;59.05;22.35;;;;;;;;;;4931573;29;20040;-87
2022/03/29 08:06:27;;;;;;;55.80;22.15;;;;;;;;;;4929871;29;20508;-87
2022/03/29 08:08:54;;;;;;;50.92;21.08;;;;;;;;;;4940390;28;20047;-88
2022/03/29 08:11:22;;;;;;;65.63;21.48;;;;;;;;;;4926669;29;20052;-87
2022/03/29 08:13:49;;;;;;;65.90;22.13;;;;;;;;;;4944447;28;20611;-87
2022/03/29 08:16:16;;;;;;;52.58;21.95;;;;;;;;;;4928767;29;20840;-86
2022/03/29 08:18:43;;;;;;;57.15;21.23;;;;;;;;;;4928697;29;20516;-86
2022/03/29 08:24:02;;;;;;;57.60;22.30;;;;;;;;;;4877687;29;20080;-89
2022/03/29 08:26:30;;;;;;;57.25;22.40;;;;;;;;;;4875935;29;20056;-89
2022/03/29 08:28:57;;;;;;;47.53;21.02;;;;;;;;;;4863774;29;20274;-85
2022/03/29 08:31:24;;;;;;;52.38;21.15;;;;;;;;;;4872930;29;20522;-87
2022/03/29 08:33:50;;;;;;;50.85;20.42;;;;;;;;;;4870930;29;20056;-87
2022/03/29 08:36:17;;;;;;;51.83;21.02;;;;;;;;;;4879360;29;20100;-86
2022/03/29 08:38:44;;;;;;;44.28;20.33;;;;;;;;;;4876878;29;20052;-86
2022/03/29 08:41:13;;;;;;;47.38;21.35;;;;;;;;;;4854638;29;20072;-87
2022/03/29 08:43:40;;;;;;;47.38;21.83;;;;;;;;;;4880873;29;20108;-86
2022/03/29 08:46:07;;;;;;;58.72;21.75;;;;;;;;;;4882828;29;20085;-86
2022/03/29 08:48:34;;;;;;;53.47;20.60;;;;;;;;;;4865204;29;20060;-87
2022/03/29 08:51:01;;;;;;;48.20;20.90;;;;;;;;;;4864540;29;20068;-86
2022/03/29 08:53:49;;;;;;;43.70;19.15;;;;;;;;;;4872396;29;20459;-86
2022/03/29 08:56:17;;;;;;;51.78;19.98;;;;;;;;;;4887507;29;20053;-86
2022/03/29 08:58:44;;;;;;;49.40;18.85;;;;;;;;;;4867926;29;20064;-86
2022/03/29 09:01:11;;;;;;;48.72;19.90;;;;;;;;;;4911370;29;20063;-88
2022/03/29 09:03:38;;;;;;;43.55;19.08;;;;;;;;;;4931737;29;20427;-88
2022/03/29 09:06:07;;;;;;;44.97;19.65;;;;;;;;;;4930600;29;20043;-87
2022/03/29 09:08:47;;;;;;;54.95;21.92;;;;;;;;;;4932399;29;20787;-87
2022/03/29 09:11:14;;;;;;;49.20;20.25;;;;;;;;;;4931852;29;20420;-88
2022/03/29 09:13:42;;;;;;;41.40;18.98;;;;;;;;;;4932842;29;20079;-89
2022/03/29 09:16:28;;;;;;;41.22;19.55;;;;;;;;;;4931684;29;20051;-88
2022/03/29 09:18:56;;;;;;;44.47;19.90;;;;;;;;;;4929914;29;20106;-89
2022/03/29 09:21:24;;;;;;;44.90;18.15;;;;;;;;;;4932442;29;20044;-87
2022/03/29 09:24:17;;;;;;;53.85;20.52;;;;;;;;;;4927939;29;20044;-84
2022/03/29 09:26:46;;;;;;;41.85;19.42;;;;;;;;;;4930334;29;20075;-87
2022/03/29 09:29:13;;;;;;;43.47;19.35;;;;;;;;;;4945064;29;20051;-88
2022/03/29 09:31:42;;;;;;;43.28;20.42;;;;;;;;;;4930232;29;20055;-88
2022/03/29 09:34:11;;;;;;;46.45;20.15;;;;;;;;;;4929859;29;20099;-89
2022/03/29 09:36:56;;;;;;;57.58;20.88;;;;;;;;;;4944335;28;20460;-88
2022/03/29 09:39:37;;;;;;;61.90;20.60;;;;;;;;;;4928325;29;20047;-88
2022/03/29 09:42:17;;;;;;;44.20;19.52;;;;;;;;;;4928450;29;20052;-86
2022/03/29 09:44:51;;;;;;;49.70;19.05;;;;;;;;;;4930038;29;20051;-86
2022/03/29 09:47:21;;;;;;;44.05;19.42;;;;;;;;;;4929776;29;20059;-86
2022/03/29 09:50:06;;;;;;;47.20;19.10;;;;;;;;;;4935227;29;20521;-86
2022/03/29 09:52:37;;;;;;;49.22;20.00;;;;;;;;;;4931553;29;20106;-89
2022/03/29 09:55:06;;;;;;;38.95;19.88;;;;;;;;;;4932696;29;20051;-85
2022/03/29 09:57:37;;;;;;;49.40;20.75;;;;;;;;;;4931291;29;20051;-88
2022/03/29 10:00:07;;;;;;;46.13;19.95;;;;;;;;;;4930645;29;20047;-90
2022/03/29 10:02:36;;;;;;;51.10;20.38;;;;;;;;;;4914811;29;20052;-85
2022/03/29 10:05:04;;;;;;;45.72;20.58;;;;;;;;;;4931130;29;20052;-88
2022/03/29 10:07:38;;;;;;;39.42;20.55;;;;;;;;;;4945452;28;20071;-87
2022/03/29 10:10:07;;;;;;;43.17;19.42;;;;;;;;;;4931257;29;20055;-83
2022/03/29 10:12:35;;;;;;;45.10;21.15;;;;;;;;;;4946272;29;20103;-85
2022/03/29 10:15:22;;;;;;;51.50;22.65;;;;;;;;;;4928270;29;20123;-85
2022/03/29 10:17:58;;;;;;;49.67;22.55;;;;;;;;;;4929779;29;20048;-85
2022/03/29 10:20:25;;;;;;;45.30;20.77;;;;;;;;;;4944895;29;20074;-87
2022/03/29 10:22:52;;;;;;;49.25;20.52;;;;;;;;;;4922464;29;20103;-88
2022/03/29 10:25:20;;;;;;;47.17;20.90;;;;;;;;;;4928794;29;20047;-87
2022/03/29 10:27:48;;;;;;;48.55;21.48;;;;;;;;;;4930798;29;20517;-84
2022/03/29 10:30:32;;;;;;;44.63;21.00;;;;;;;;;;4931783;28;20112;-87
2022/03/29 10:33:16;;;;;;;36.90;20.50;;;;;;;;;;4929743;29;20047;-87
2022/03/29 10:36:06;;;;;;;42.08;19.25;;;;;;;;;;4929881;29;20476;-85
2022/03/29 10:38:48;;;;;;;50.30;19.98;;;;;;;;;;4929530;29;20059;-87
2022/03/29 10:41:29;;;;;;;40.00;19.65;;;;;;;;;;4929525;29;20140;-86
2022/03/29 10:44:04;;;;;;;55.50;19.05;;;;;;;;;;4930662;29;20091;-86
2022/03/29 10:46:40;;;;;;;38.33;19.13;;;;;;;;;;4930367;29;20051;-87
2022/03/29 10:49:22;;;;;;;44.85;19.95;;;;;;;;;;4943674;29;20103;-85
2022/03/29 10:51:54;;;;;;;45.22;20.33;;;;;;;;;;4927524;29;20051;-85
2022/03/29 10:54:38;;;;;;;47.53;20.33;;;;;;;;;;4931348;29;20052;-85
2022/03/29 10:57:24;;;;;;;39.40;19.00;;;;;;;;;;4927895;29;20390;-85
2022/03/29 11:00:11;;;;;;;42.15;17.70;;;;;;;;;;4920244;29;20054;-85
2022/03/29 11:03:08;;;;;;;43.33;18.75;;;;;;;;;;4900652;29;20525;-85
2022/03/29 11:06:07;;;;;;;34.13;16.77;;;;;;;;;;4932086;29;20499;-84
2022/03/29 11:08:37;;;;;;;37.13;17.92;;;;;;;;;;4915729;29;20124;-85
2022/03/29 11:11:04;;;;;;;;;;;;;;;;;;4924686;29;20056;-85
2022/03/29 11:13:39;;;;;;;37.60;16.48;;;;;;;;;;4947058;29;19923;-85
2022/03/29 11:16:29;;;;;;;38.55;16.02;;;;;;;;;;4930184;28;20078;-85
2022/03/29 11:18:58;;;;;;;35.65;16.00;;;;;;;;;;4930037;28;20637;-85
2022/03/29 11:21:42;;;;;;;37.85;16.35;;;;;;;;;;4931109;28;20563;-86
2022/03/29 11:24:11;;;;;;;34.88;17.55;;;;;;;;;;4930544;29;20040;-84
2022/03/29 11:26:52;;;;;;;41.00;17.20;;;;;;;;;;4930313;28;20480;-85
2022/03/29 11:29:20;;;;;;;33.58;15.85;;;;;;;;;;4924726;29;20044;-85
2022/03/29 11:31:47;;;;;;;31.70;14.77;;;;;;;;;;4934297;28;20090;-85
2022/03/29 11:34:14;;;;;;;29.27;14.82;;;;;;;;;;4930793;29;20076;-85
2022/03/29 11:36:41;;;;;;;36.80;15.43;;;;;;;;;;4946758;28;20571;-84
2022/03/29 11:39:20;;;;;;;39.80;15.43;;;;;;;;;;4930775;29;20166;-85
2022/03/29 11:41:47;;;;;;;36.45;14.82;;;;;;;;;;4927583;28;20051;-85
2022/03/29 11:44:14;;;;;;;33.22;14.65;;;;;;;;;;4929926;28;20420;-85
2022/03/29 11:46:43;;;;;;;33.65;15.05;;;;;;;;;;4928154;29;20055;-85
2022/03/29 11:49:10;;;;;;;31.38;13.02;;;;;;;;;;4926174;29;20040;-87
2022/03/29 11:51:36;;;;;;;29.38;14.40;;;;;;;;;;4935080;29;20551;-86
2022/03/29 11:54:03;;;;;;;39.35;15.45;;;;;;;;;;4933609;28;20055;-86
2022/03/29 11:56:35;;;;;;;38.10;14.85;;;;;;;;;;4930446;28;20075;-86
2022/03/29 11:59:02;;;;;;;35.40;13.40;;;;;;;;;;4930001;29;20535;-85
2022/03/29 12:01:29;;;;;;;33.30;14.43;;;;;;;;;;4930318;28;20424;-85
2022/03/29 12:03:59;;;;;;;27.75;13.98;;;;;;;;;;4938547;28;20046;-87
2022/03/29 12:06:29;;;;;;;35.40;15.05;;;;;;;;;;4936378;28;20130;-88
2022/03/29 12:09:08;;;;;;;38.95;15.98;;;;;;;;;;4932544;29;20357;-89
2022/03/29 12:11:37;;;;;;;39.30;15.52;;;;;;;;;;4943161;29;20043;-90
2022/03/29 12:14:07;;;;;;;36.70;15.57;;;;;;;;;;4934424;29;20513;-89
2022/03/29 12:16:40;;;;;;;32.35;15.27;;;;;;;;;;4931835;29;20079;-88
2022/03/29 12:19:13;;;;;;;39.78;15.10;;;;;;;;;;4929904;29;20056;-88
2022/03/29 12:21:45;;;;;;;34.03;15.43;;;;;;;;;;4928515;28;20512;-90
2022/03/29 12:24:13;;;;;;;33.10;16.25;;;;;;;;;;4932452;29;20106;-89
2022/03/29 12:26:47;;;;;;;38.70;16.40;;;;;;;;;;4934297;29;20051;-91
2022/03/29 12:29:22;;;;;;;38.25;16.50;;;;;;;;;;4926704;29;20048;-89
2022/03/29 12:31:49;;;;;;;37.55;17.73;;;;;;;;;;4926966;29;20186;-89
2022/03/29 12:34:28;;;;;;;35.88;17.35;;;;;;;;;;4927435;29;20039;-88
2022/03/29 12:36:58;;;;;;;33.13;18.30;;;;;;;;;;4929903;29;20048;-89
2022/03/29 12:39:37;;;;;;;37.75;17.95;;;;;;;;;;4925524;29;20052;-89
2022/03/29 12:42:08;;;;;;;45.17;19.00;;;;;;;;;;4931201;29;20127;-85
2022/03/29 12:44:43;;;;;;;37.85;19.20;;;;;;;;;;4934885;29;20587;-89
2022/03/29 12:47:10;;;;;;;34.47;17.90;;;;;;;;;;4932840;29;20048;-89
2022/03/29 12:49:39;;;;;;;37.05;18.25;;;;;;;;;;4938061;29;20429;-90
2022/03/29 12:52:09;;;;;;;34.53;18.02;;;;;;;;;;4943436;29;20084;-88
2022/03/29 12:54:46;;;;;;;43.83;19.67;;;;;;;;;;4943387;29;20055;-88
2022/03/29 12:57:15;;;;;;;43.10;19.77;;;;;;;;;;4947427;29;20047;-89
2022/03/29 12:59:45;;;;;;;40.22;19.80;;;;;;;;;;4946067;29;20051;-87
2022/03/29 13:02:16;;;;;;;40.38;18.00;;;;;;;;;;4958995;29;20575;-88
2022/03/29 13:04:51;;;;;;;41.63;19.77;;;;;;;;;;4947331;29;20055;-87
2022/03/29 13:07:32;;;;;;;41.03;18.38;;;;;;;;;;4936272;29;20048;-88
2022/03/29 13:10:05;;;;;;;36.80;19.20;;;;;;;;;;4942860;29;20472;-90
2022/03/29 13:12:51;;;;;;;38.35;18.58;;;;;;;;;;4946933;29;20051;-88
2022/03/29 13:15:37;;;;;;;41.97;19.60;;;;;;;;;;4957866;29;20118;-90
2022/03/29 13:18:16;;;;;;;38.78;19.48;;;;;;;;;;4941333;29;20071;-85
2022/03/29 13:21:19;;;;;;;45.20;19.33;;;;;;;;;;4945732;29;20076;-89
2022/03/29 13:24:19;;;;;;;40.45;19.42;;;;;;;;;;4931977;29;20174;-88
2022/03/29 13:26:51;;;;;;;43.65;21.05;;;;;;;;;;4934258;29;20698;-88
2022/03/29 13:29:19;;;;;;;45.42;18.30;;;;;;;;;;4934828;29;20250;-88
2022/03/29 13:31:50;;;;;;;40.70;18.55;;;;;;;;;;4933846;29;20048;-88
2022/03/29 13:34:19;;;;;;;46.97;18.85;;;;;;;;;;4940113;29;20164;-89
2022/03/29 13:36:46;;;;;;;47.78;19.58;;;;;;;;;;4945583;29;20115;-87
2022/03/29 13:39:15;;;;;;;39.35;17.48;;;;;;;;;;4943271;29;20058;-87
2022/03/29 13:42:03;;;;;;;44.38;18.02;;;;;;;;;;4934554;29;20063;-89
2022/03/29 13:44:31;;;;;;;38.55;18.17;;;;;;;;;;4934207;29;20251;-89
2022/03/29 13:46:59;;;;;;;40.03;17.55;;;;;;;;;;4941391;29;20075;-90
2022/03/29 13:49:27;;;;;;;45.60;16.80;;;;;;;;;;4939433;29;20464;-89
2022/03/29 13:51:55;;;;;;;;;;;;;;;;;;4945019;29;20115;-88
2022/03/29 13:54:23;;;;;;;41.80;16.98;;;;;;;;;;4938803;29;19931;-88
2022/03/29 13:56:50;;;;;;;41.47;17.45;;;;;;;;;;4933662;29;20122;-89
2022/03/29 13:59:22;;;;;;;41.33;16.52;;;;;;;;;;4935274;29;20056;-87
2022/03/29 14:01:49;;;;;;;48.35;17.67;;;;;;;;;;4952562;29;20036;-90
2022/03/29 14:04:15;;;;;;;38.83;16.63;;;;;;;;;;4944467;29;20078;-87
2022/03/29 14:06:42;;;;;;;39.88;15.73;;;;;;;;;;4946896;29;20119;-87
2022/03/29 14:09:09;;;;;;;39.60;16.85;;;;;;;;;;4955907;29;20051;-88
2022/03/29 14:11:36;;;;;;;47.28;18.25;;;;;;;;;;4929885;29;20055;-90
2022/03/29 14:14:02;;;;;;;42.67;15.98;;;;;;;;;;4924309;29;20050;-86
2022/03/29 14:16:29;;;;;;;45.65;15.40;;;;;;;;;;4943146;28;20055;-87
2022/03/29 14:18:56;;;;;;;41.53;15.57;;;;;;;;;;4927802;29;20056;-86
2022/03/29 14:21:23;;;;;;;40.10;15.63;;;;;;;;;;4927756;29;20071;-86
2022/03/29 14:23:50;;;;;;;36.55;15.95;;;;;;;;;;4926472;29;20055;-88
2022/03/29 14:26:17;;;;;;;39.80;14.55;;;;;;;;;;4923029;29;20095;-88
2022/03/29 14:28:44;;;;;;;41.67;15.35;;;;;;;;;;4924292;29;20067;-89
2022/03/29 14:31:12;;;;;;;38.53;15.90;;;;;;;;;;4927196;29;20059;-87
2022/03/29 14:33:39;;;;;;;37.20;14.25;;;;;;;;;;4925733;29;20519;-89
2022/03/29 14:36:06;;;;;;;36.15;13.73;;;;;;;;;;4929097;29;20048;-89
2022/03/29 14:38:34;;;;;;;41.87;16.67;;;;;;;;;;4927576;29;20130;-89
2022/03/29 14:41:20;;;;;;;40.92;16.13;;;;;;;;;;4925482;29;20055;-89
2022/03/29 14:43:47;;;;;;;;;;;;;;;;;;4946016;28;20052;-89
2022/03/29 14:46:14;;;;;;;42.60;16.92;;;;;;;;;;4927735;29;19923;-90
2022/03/29 14:48:41;;;;;;;40.97;16.65;;;;;;;;;;4926339;29;20055;-88
2022/03/29 14:51:08;;;;;;;36.92;15.25;;;;;;;;;;4942354;28;20063;-84
2022/03/29 14:53:35;;;;;;;43.08;16.33;;;;;;;;;;4927878;29;20560;-89
2022/03/29 14:56:02;;;;;;;37.42;14.93;;;;;;;;;;4921350;29;20115;-88
2022/03/29 14:58:29;;;;;;;38.15;16.55;;;;;;;;;;4926284;29;20124;-89
2022/03/29 15:00:56;;;;;;;44.95;17.00;;;;;;;;;;4925095;28;20052;-88
2022/03/29 15:03:23;;;;;;;48.63;17.10;;;;;;;;;;4925177;29;20055;-87
2022/03/29 15:05:51;;;;;;;41.85;17.00;;;;;;;;;;4919633;29;20044;-87
2022/03/29 15:08:17;;;;;;;35.58;16.38;;;;;;;;;;4925227;29;20123;-89
2022/03/29 15:10:45;;;;;;;43.72;16.00;;;;;;;;;;4931564;29;20092;-89
2022/03/29 15:13:14;;;;;;;55.95;17.48;;;;;;;;;;4932482;29;20044;-89
2022/03/29 15:15:41;;;;;;;48.28;17.70;;;;;;;;;;4933763;29;20468;-89
2022/03/29 15:18:07;;;;;;;39.30;16.95;;;;;;;;;;4945756;29;20051;-89
2022/03/29 15:20:35;;;;;;;38.95;18.15;;;;;;;;;;4931754;29;20074;-88
2022/03/29 15:23:02;;;;;;;42.85;17.15;;;;;;;;;;4930130;29;20070;-87
2022/03/29 15:25:28;;;;;;;41.22;18.35;;;;;;;;;;4927436;29;20047;-87
2022/03/29 15:27:55;;;;;;;42.95;17.08;;;;;;;;;;4917013;29;20051;-87
2022/03/29 15:30:23;;;;;;;45.50;17.45;;;;;;;;;;4939342;28;20050;-87
2022/03/29 15:32:51;;;;;;;38.25;16.75;;;;;;;;;;4925376;29;20048;-89
2022/03/29 15:35:17;;;;;;;42.75;16.48;;;;;;;;;;4919863;29;20048;-88
2022/03/29 15:37:44;;;;;;;42.17;14.88;;;;;;;;;;4921450;29;20119;-88
2022/03/29 15:40:11;;;;;;;39.97;14.60;;;;;;;;;;4923289;29;20052;-89
2022/03/29 15:42:39;;;;;;;41.90;15.90;;;;;;;;;;4922625;29;20056;-84
2022/03/29 15:45:08;;;;;;;48.40;17.40;;;;;;;;;;4925845;29;20421;-87
2022/03/29 15:47:36;;;;;;;45.03;17.15;;;;;;;;;;4939856;28;20123;-88
2022/03/29 15:50:06;;;;;;;44.50;16.95;;;;;;;;;;4925232;29;20545;-83
2022/03/29 15:52:34;;;;;;;29.38;15.02;;;;;;;;;;4922437;29;20056;-86
2022/03/29 15:55:08;;;;;;;39.90;15.15;;;;;;;;;;4920884;29;20575;-89
2022/03/29 15:57:35;;;;;;;45.83;14.80;;;;;;;;;;4921852;29;20056;-86
2022/03/29 16:00:05;;;;;;;43.00;15.13;;;;;;;;;;4926929;29;20047;-87
2022/03/29 16:02:32;;;;;;;35.20;14.40;;;;;;;;;;4927686;28;20070;-87
2022/03/29 16:04:59;;;;;;;37.88;15.23;;;;;;;;;;4936974;28;20559;-85
2022/03/29 16:07:26;;;;;;;40.38;16.23;;;;;;;;;;4938286;28;20056;-89
2022/03/29 16:09:53;;;;;;;38.53;17.27;;;;;;;;;;4923465;29;20052;-89
2022/03/29 16:12:20;;;;;;;44.03;17.30;;;;;;;;;;4921879;29;20048;-86
2022/03/29 16:14:46;;;;;;;40.55;17.67;;;;;;;;;;4926553;29;20119;-88
2022/03/29 16:17:14;;;;;;;43.30;18.77;;;;;;;;;;4926149;29;20103;-87
2022/03/29 16:19:41;;;;;;;39.83;18.45;;;;;;;;;;4925153;29;20059;-87
2022/03/29 16:22:09;;;;;;;45.13;19.45;;;;;;;;;;4926930;29;20114;-90
2022/03/29 16:24:37;;;;;;;48.80;19.15;;;;;;;;;;4920760;29;20047;-87
2022/03/29 16:27:27;;;;;;;44.38;18.98;;;;;;;;;;4923836;29;20164;-86
2022/03/29 16:29:55;;;;;;;45.28;19.38;;;;;;;;;;4927200;28;20063;-87
2022/03/29 16:32:23;;;;;;;46.97;20.13;;;;;;;;;;4927638;29;20044;-86
2022/03/29 16:34:50;;;;;;;41.55;18.70;;;;;;;;;;4927892;29;20111;-87
2022/03/29 16:37:17;;;;;;;54.00;20.38;;;;;;;;;;4930316;29;20051;-88
2022/03/29 16:39:44;;;;;;;49.55;19.48;;;;;;;;;;4930967;29;20409;-88
2022/03/29 16:42:11;;;;;;;48.72;20.67;;;;;;;;;;4925784;29;20098;-87
2022/03/29 16:44:38;;;;;;;49.65;22.80;;;;;;;;;;4924642;29;20052;-86
2022/03/29 16:47:09;;;;;;;57.20;24.40;;;;;;;;;;4926542;29;20052;-87
2022/03/29 16:49:36;;;;;;;58.42;23.83;;;;;;;;;;4928149;29;20063;-88
2022/03/29 16:52:03;;;;;;;53.35;24.60;;;;;;;;;;4932025;29;20121;-86
2022/03/29 16:54:31;;;;;;;55.65;26.00;;;;;;;;;;4945178;29;20102;-87
2022/03/29 16:57:00;;;;;;;61.55;26.48;;;;;;;;;;4945387;29;20052;-87
2022/03/29 16:59:27;;;;;;;58.33;26.48;;;;;;;;;;4930396;29;20055;-86
2022/03/29 17:01:54;;;;;;;57.03;25.48;;;;;;;;;;4928326;29;20055;-87
2022/03/29 17:04:21;;;;;;;59.63;24.20;;;;;;;;;;4929063;29;20079;-87
2022/03/29 17:06:48;;;;;;;60.65;25.48;;;;;;;;;;4931013;29;20396;-89
2022/03/29 17:09:14;;;;;;;62.47;25.40;;;;;;;;;;4930484;29;20587;-87
2022/03/29 17:11:43;;;;;;;67.05;27.67;;;;;;;;;;4931653;29;20067;-89
2022/03/29 17:14:13;;;;;;;65.35;27.20;;;;;;;;;;4933529;29;20643;-85
2022/03/29 17:16:42;;;;;;;64.82;28.55;;;;;;;;;;4934137;29;20465;-87
2022/03/29 17:19:10;;;;;;;62.65;28.50;;;;;;;;;;4933359;29;20099;-84
2022/03/29 17:21:37;;;;;;;71.00;29.37;;;;;;;;;;4949617;29;20082;-87
2022/03/29 17:24:08;;;;;;;67.35;29.35;;;;;;;;;;4934448;29;20060;-85
2022/03/29 17:26:36;;;;;;;73.95;30.65;;;;;;;;;;4938772;28;20058;-88
2022/03/29 17:29:03;;;;;;;62.88;29.13;;;;;;;;;;4941417;29;20110;-87
2022/03/29 17:31:31;;;;;;;73.47;31.23;;;;;;;;;;4940577;29;20059;-87
2022/03/29 17:34:00;;;;;;;75.53;30.73;;;;;;;;;;4945006;29;20062;-86
2022/03/29 17:36:28;;;;;;;72.85;30.20;;;;;;;;;;4940054;29;20055;-87
2022/03/29 17:38:56;;;;;;;71.82;30.10;;;;;;;;;;4937505;28;20051;-86
2022/03/29 17:41:22;;;;;;;70.93;30.27;;;;;;;;;;4933323;29;20052;-87
2022/03/29 17:43:49;;;;;;;68.00;30.23;;;;;;;;;;4931253;29;20098;-87
2022/03/29 17:46:16;;;;;;;66.55;30.15;;;;;;;;;;4932579;29;20056;-85
2022/03/29 17:48:43;;;;;;;67.75;30.27;;;;;;;;;;4933446;29;20062;-87
2022/03/29 17:51:10;;;;;;;66.10;29.95;;;;;;;;;;4931910;29;20048;-88
2022/03/29 17:53:37;;;;;;;67.40;31.63;;;;;;;;;;4927220;29;20048;-85
2022/03/29 17:56:05;;;;;;;76.28;30.10;;;;;;;;;;4932346;29;20059;-83
2022/03/29 17:58:37;;;;;;;73.03;30.75;;;;;;;;;;4913037;29;20129;-84
2022/03/29 18:01:04;;;;;;;74.68;31.75;;;;;;;;;;4927439;29;20126;-84
2022/03/29 18:03:31;;;;;;;69.05;29.55;;;;;;;;;;4932571;29;20070;-86
2022/03/29 18:05:59;;;;;;;72.05;30.95;;;;;;;;;;4929409;29;20579;-85
2022/03/29 18:08:26;;;;;;;67.05;31.30;;;;;;;;;;4926997;29;20521;-86
2022/03/29 18:10:53;;;;;;;68.40;30.77;;;;;;;;;;4941432;29;20118;-88
2022/03/29 18:13:20;;;;;;;78.55;32.30;;;;;;;;;;4917984;29;20058;-88
2022/03/29 18:15:47;;;;;;;78.30;31.55;;;;;;;;;;4927770;29;20140;-86
2022/03/29 18:18:13;;;;;;;75.90;31.75;;;;;;;;;;4931023;29;20044;-87
2022/03/29 18:20:40;;;;;;;72.45;32.47;;;;;;;;;;4945600;29;20062;-88
2022/03/29 18:23:07;;;;;;;79.70;32.35;;;;;;;;;;4931692;29;20071;-87
2022/03/29 18:25:35;;;;;;;90.65;34.08;;;;;;;;;;4933178;29;20059;-89
2022/03/29 18:28:03;;;;;;;78.72;33.33;;;;;;;;;;4931105;29;20059;-85
2022/03/29 18:30:30;;;;;;;84.20;34.75;;;;;;;;;;4930827;29;20135;-85
2022/03/29 18:32:57;;;;;;;86.80;34.35;;;;;;;;;;4930173;29;20051;-86
2022/03/29 18:35:24;;;;;;;82.57;36.25;;;;;;;;;;4945943;28;20055;-87
2022/03/29 18:37:52;;;;;;;82.78;35.28;;;;;;;;;;4945872;29;20051;-84
2022/03/29 18:40:20;;;;;;;82.22;35.58;;;;;;;;;;4944770;29;20051;-85
2022/03/29 18:42:48;;;;;;;83.40;36.38;;;;;;;;;;4946038;29;20051;-88
2022/03/29 18:45:15;;;;;;;82.82;35.90;;;;;;;;;;4931086;28;20047;-84
2022/03/29 18:47:42;;;;;;;83.90;35.55;;;;;;;;;;4931672;29;20051;-88
2022/03/29 18:50:12;;;;;;;84.65;35.65;;;;;;;;;;4946684;29;20055;-86
2022/03/29 18:52:40;;;;;;;89.18;36.58;;;;;;;;;;4931582;29;20671;-88
2022/03/29 18:55:08;;;;;;;92.65;37.00;;;;;;;;;;4928959;28;20048;-84
2022/03/29 18:57:36;;;;;;;90.20;37.70;;;;;;;;;;4931311;29;20083;-85
2022/03/29 19:00:05;;;;;;;89.90;37.83;;;;;;;;;;4931826;29;20095;-86
2022/03/29 19:02:32;;;;;;;94.53;38.78;;;;;;;;;;4929477;29;20299;-85
2022/03/29 19:04:59;;;;;;;92.03;38.45;;;;;;;;;;4945415;28;20060;-85
2022/03/29 19:07:27;;;;;;;91.68;38.28;;;;;;;;;;4929898;29;20123;-85
2022/03/29 19:09:55;;;;;;;90.40;38.90;;;;;;;;;;4928536;29;20048;-85
2022/03/29 19:12:23;;;;;;;90.80;38.73;;;;;;;;;;4923828;29;20052;-87
2022/03/29 19:14:50;;;;;;;101.63;40.63;;;;;;;;;;4918954;29;20299;-85
2022/03/29 19:17:17;;;;;;;87.43;37.83;;;;;;;;;;4922008;29;20402;-84
2022/03/29 19:19:43;;;;;;;89.53;40.92;;;;;;;;;;4919416;29;20059;-83
2022/03/29 19:22:10;;;;;;;95.72;41.17;;;;;;;;;;4922121;29;20040;-84
2022/03/29 19:24:37;;;;;;;96.80;41.65;;;;;;;;;;4934732;28;20116;-83
2022/03/29 19:27:04;;;;;;;103.82;42.15;;;;;;;;;;4920568;29;20040;-81
2022/03/29 19:29:32;;;;;;;97.40;41.28;;;;;;;;;;4918987;29;20072;-84
2022/03/29 19:32:01;;;;;;;95.75;41.30;;;;;;;;;;4917945;29;20058;-84
2022/03/29 19:34:31;;;;;;;92.53;41.60;;;;;;;;;;4921644;29;20146;-83
2022/03/29 19:36:58;;;;;;;102.38;44.58;;;;;;;;;;4926143;29;20052;-83
2022/03/29 19:39:39;;;;;;;105.88;44.53;;;;;;;;;;4928138;29;20059;-84
2022/03/29 19:42:14;;;;;;;110.22;46.28;;;;;;;;;;4928151;29;20047;-84
2022/03/29 19:44:54;;;;;;;107.22;45.88;;;;;;;;;;4926540;29;20048;-82
2022/03/29 19:47:26;;;;;;;112.57;47.63;;;;;;;;;;4925644;29;20048;-83
2022/03/29 19:49:55;;;;;;;116.60;48.85;;;;;;;;;;4929251;29;20102;-82
2022/03/29 19:52:23;;;;;;;114.38;48.65;;;;;;;;;;4926062;29;20138;-82
2022/03/29 19:54:53;;;;;;;118.03;50.10;;;;;;;;;;4925304;29;20121;-82
2022/03/29 19:57:20;;;;;;;108.25;48.33;;;;;;;;;;4928162;29;20509;-81
2022/03/29 19:59:48;;;;;;;118.68;50.70;;;;;;;;;;4928911;29;20409;-81
2022/03/29 20:02:15;;;;;;;118.93;51.58;;;;;;;;;;4928107;29;20111;-82
2022/03/29 20:04:44;;;;;;;122.97;52.53;;;;;;;;;;4928441;29;20048;-84
2022/03/29 20:07:12;;;;;;;125.15;53.17;;;;;;;;;;4927048;29;20048;-83
2022/03/29 20:09:39;;;;;;;122.28;52.03;;;;;;;;;;4928802;29;20158;-82
2022/03/29 20:12:07;;;;;;;133.25;53.20;;;;;;;;;;4910761;29;20563;-82
2022/03/29 20:14:34;;;;;;;135.13;54.85;;;;;;;;;;4926092;29;20103;-83
2022/03/29 20:17:01;;;;;;;127.97;53.13;;;;;;;;;;4925802;29;20047;-83
2022/03/29 20:19:29;;;;;;;126.10;52.60;;;;;;;;;;4928285;29;20068;-83
2022/03/29 20:21:59;;;;;;;132.35;54.30;;;;;;;;;;4927270;29;20117;-84
2022/03/29 20:24:26;;;;;;;113.65;52.28;;;;;;;;;;4928704;29;20052;-84
2022/03/29 20:26:53;;;;;;;119.88;50.80;;;;;;;;;;4928503;29;20071;-83
2022/03/29 20:29:20;;;;;;;117.93;51.42;;;;;;;;;;4928279;29;20126;-85
2022/03/29 20:31:49;;;;;;;101.15;47.53;;;;;;;;;;4929406;29;20642;-83
2022/03/29 20:34:19;;;;;;;100.68;47.30;;;;;;;;;;4927929;29;20060;-85
2022/03/29 20:36:48;;;;;;;109.47;46.53;;;;;;;;;;4928204;29;20058;-84
2022/03/29 20:39:15;;;;;;;;;;;;;;;;;;4928897;29;20047;-85